createdAt,value
2022-12-26T00:04:49.675Z,37.22
2022-12-26T00:09:55.350Z,32.95
2022-12-26T00:14:59.483Z,36.53
2022-12-26T00:20:02.229Z,38.95
2022-12-26T00:25:05.650Z,40.20
2022-12-26T00:30:11.409Z,39.90
2022-12-26T00:35:14.200Z,39.88
2022-12-26T00:40:17.063Z,34.38
2022-12-26T00:45:21.228Z,21.40
2022-12-26T00:50:25.452Z,27.40
2022-12-26T00:55:29.953Z,29.02
2022-12-26T01:00:34.108Z,26.90
2022-12-26T01:05:37.431Z,22.85
2022-12-26T01:10:41.721Z,20.77
2022-12-26T01:15:50.725Z,21.83
2022-12-26T01:20:58.598Z,25.15
2022-12-26T01:26:18.611Z,24.63
2022-12-26T01:31:25.139Z,24.35
2022-12-26T01:36:27.970Z,22.25
2022-12-26T01:41:33.124Z,21.77
2022-12-26T01:46:40.832Z,20.08
2022-12-26T01:51:48.369Z,23.20
2022-12-26T01:56:51.538Z,22.25
2022-12-26T02:01:56.618Z,23.98
2022-12-26T02:07:00.992Z,23.48
2022-12-26T02:12:35.919Z,21.73
2022-12-26T02:17:33.933Z,20.95
2022-12-26T02:23:04.666Z,23.83
2022-12-26T02:28:50.314Z,19.58
2022-12-26T02:34:03.020Z,17.45
2022-12-26T02:39:44.268Z,19.75
2022-12-26T02:45:11.378Z,21.50
2022-12-26T02:50:43.080Z,22.25
2022-12-26T02:56:08.613Z,22.67
2022-12-26T03:01:38.984Z,23.63
2022-12-26T03:07:13.122Z,21.90
2022-12-26T03:13:02.980Z,23.13
2022-12-26T03:18:08.778Z,20.85
2022-12-26T03:23:16.794Z,23.00
2022-12-26T03:28:19.683Z,22.10
2022-12-26T03:33:44.605Z,23.25
2022-12-26T03:38:55.404Z,22.10
2022-12-26T03:44:27.488Z,24.08
2022-12-26T03:49:52.383Z,24.92
2022-12-26T03:55:19.761Z,19.30
2022-12-26T04:00:40.657Z,22.42
2022-12-26T04:06:05.409Z,23.80
2022-12-26T04:11:33.978Z,22.60
2022-12-26T04:16:58.008Z,20.33
2022-12-26T04:22:25.436Z,22.33
2022-12-26T04:27:50.598Z,25.33
2022-12-26T04:33:16.981Z,20.52
2022-12-26T04:38:41.520Z,24.25
2022-12-26T04:44:07.492Z,21.08
2022-12-26T04:49:30.024Z,22.95
2022-12-26T04:54:33.234Z,15.43
2022-12-26T04:59:37.423Z,18.45
2022-12-26T05:04:57.782Z,19.33
2022-12-26T05:10:00.661Z,20.88
2022-12-26T05:15:05.392Z,20.35
2022-12-26T05:20:26.765Z,20.75
2022-12-26T05:25:49.773Z,20.55
2022-12-26T05:30:54.271Z,18.75
2022-12-26T05:35:57.124Z,17.92
2022-12-26T05:41:00.998Z,16.75
2022-12-26T05:46:05.390Z,20.42
2022-12-26T05:51:08.275Z,19.95
2022-12-26T05:56:13.360Z,21.27
2022-12-26T06:01:19.512Z,22.08
2022-12-26T06:06:23.720Z,19.60
2022-12-26T06:11:27.889Z,23.02
2022-12-26T06:16:32.378Z,18.00
2022-12-26T06:21:35.340Z,20.35
2022-12-26T06:26:38.531Z,18.40
2022-12-26T06:31:42.682Z,16.23
2022-12-26T06:36:45.622Z,17.98
2022-12-26T06:41:48.748Z,14.10
2022-12-26T06:46:52.916Z,19.40
2022-12-26T06:51:55.731Z,16.20
2022-12-26T06:56:58.504Z,18.60
2022-12-26T07:02:02.718Z,15.77
2022-12-26T07:07:05.615Z,17.63
2022-12-26T07:12:08.699Z,15.48
2022-12-26T07:17:12.957Z,17.42
2022-12-26T07:22:15.706Z,11.50
2022-12-26T07:27:18.512Z,14.05
2022-12-26T07:32:23.473Z,16.15
2022-12-26T07:37:26.249Z,14.23
2022-12-26T07:42:29.001Z,13.57
2022-12-26T07:47:33.135Z,18.33
2022-12-26T07:52:36.192Z,16.17
2022-12-26T07:57:48.667Z,15.85
2022-12-26T08:02:54.320Z,17.60
2022-12-26T08:07:57.253Z,15.98
2022-12-26T08:13:00.003Z,17.80
2022-12-26T08:18:04.178Z,16.52
2022-12-26T08:23:06.959Z,20.15
2022-12-26T08:28:09.936Z,13.55
2022-12-26T08:33:14.423Z,17.65
2022-12-26T08:38:17.196Z,21.25
2022-12-26T08:43:39.060Z,22.33
2022-12-26T08:48:44.255Z,23.15
2022-12-26T08:53:49.437Z,25.27
2022-12-26T08:58:52.265Z,22.65
2022-12-26T09:03:57.740Z,25.65
2022-12-26T09:09:01.096Z,21.23
2022-12-26T09:14:04.906Z,21.13
2022-12-26T09:19:12.199Z,23.00
2022-12-26T09:24:16.601Z,16.10
2022-12-26T09:29:19.403Z,10.85
2022-12-26T09:34:23.575Z,17.33
2022-12-26T09:39:26.845Z,16.60
2022-12-26T09:44:39.102Z,14.65
2022-12-26T09:49:51.800Z,12.30
2022-12-26T10:00:00.190Z,11.63
2022-12-26T10:05:04.916Z,8.30
2022-12-26T10:10:11.470Z,10.60
2022-12-26T10:15:28.588Z,7.72
2022-12-26T10:20:40.868Z,9.23
2022-12-26T10:25:47.233Z,7.95
2022-12-26T10:30:53.466Z,10.13
2022-12-26T10:35:58.656Z,5.30
2022-12-26T10:41:06.957Z,7.10
2022-12-26T10:46:29.409Z,6.03
2022-12-26T10:51:34.761Z,3.28
2022-12-26T10:56:37.591Z,5.63
2022-12-26T11:01:47.235Z,3.63
2022-12-26T11:06:53.417Z,6.43
2022-12-26T11:11:56.281Z,8.10
2022-12-26T11:17:03.314Z,5.28
2022-12-26T11:22:25.607Z,4.65
2022-12-26T11:27:28.498Z,4.13
2022-12-26T11:32:31.271Z,6.85
2022-12-26T11:37:43.926Z,4.30
2022-12-26T11:42:51.354Z,4.68
2022-12-26T11:47:57.178Z,7.70
2022-12-26T11:53:10.200Z,3.17
2022-12-26T11:58:21.612Z,5.93
2022-12-26T12:03:31.792Z,5.90
2022-12-26T12:08:47.012Z,5.13
2022-12-26T12:14:01.429Z,5.10
2022-12-26T12:19:17.753Z,2.58
2022-12-26T12:24:39.651Z,3.97
2022-12-26T12:30:06.811Z,3.35
2022-12-26T12:35:25.334Z,3.90
2022-12-26T12:40:38.838Z,2.65
2022-12-26T12:45:54.142Z,5.72
2022-12-26T12:51:04.333Z,3.05
2022-12-26T12:56:22.162Z,5.85
2022-12-26T13:01:29.446Z,4.80
2022-12-26T13:06:37.649Z,2.58
2022-12-26T13:11:47.117Z,9.60
2022-12-26T13:16:55.749Z,5.45
2022-12-26T13:22:04.698Z,6.65
2022-12-26T13:27:31.612Z,8.63
2022-12-26T13:32:34.731Z,12.55
2022-12-26T13:37:58.945Z,6.43
2022-12-26T13:43:28.239Z,5.60
2022-12-26T13:48:59.990Z,5.97
2022-12-26T13:54:10.303Z,6.65
2022-12-26T13:59:18.235Z,6.38
2022-12-26T14:04:42.210Z,8.38
2022-12-26T14:09:58.296Z,9.82
2022-12-26T14:15:24.296Z,6.72
2022-12-26T14:20:40.200Z,6.00
2022-12-26T14:25:53.399Z,10.10
2022-12-26T14:31:12.497Z,11.55
2022-12-26T14:36:25.127Z,5.93
2022-12-26T14:41:46.024Z,8.75
2022-12-26T14:47:00.930Z,9.65
2022-12-26T14:52:33.576Z,6.18
2022-12-26T14:57:54.913Z,5.97
2022-12-26T15:03:38.560Z,6.22
2022-12-26T15:09:02.058Z,13.90
2022-12-26T15:14:27.354Z,5.40
2022-12-26T15:19:55.172Z,9.13
2022-12-26T15:25:33.050Z,5.78
2022-12-26T15:30:53.373Z,8.38
2022-12-26T15:36:06.928Z,10.02
2022-12-26T15:41:15.362Z,9.57
2022-12-26T15:46:23.326Z,9.82
2022-12-26T15:51:39.993Z,9.25
2022-12-26T15:56:58.977Z,5.68
2022-12-26T16:02:02.592Z,10.18
2022-12-26T16:07:22.885Z,8.27
2022-12-26T16:12:28.581Z,8.80
2022-12-26T16:17:31.837Z,8.50
2022-12-26T16:22:46.684Z,13.32
2022-12-26T16:27:52.486Z,6.47
2022-12-26T16:32:56.073Z,9.95
2022-12-26T16:38:02.621Z,16.60
2022-12-26T16:43:07.334Z,11.55
2022-12-26T16:48:13.446Z,7.68
2022-12-26T16:53:19.336Z,7.03
2022-12-26T16:58:24.840Z,7.85
2022-12-26T17:03:35.667Z,8.43
2022-12-26T17:08:44.569Z,21.73
2022-12-26T17:13:52.785Z,8.02
2022-12-26T17:18:56.526Z,8.98
2022-12-26T17:24:12.535Z,7.68
2022-12-26T17:29:52.109Z,10.43
2022-12-26T17:34:55.721Z,9.80
2022-12-26T17:40:05.765Z,6.88
2022-12-26T17:45:10.984Z,7.95
2022-12-26T17:50:14.661Z,11.80
2022-12-26T17:55:21.250Z,8.77
2022-12-26T18:00:27.213Z,11.73
2022-12-26T18:05:30.024Z,10.18
2022-12-26T18:10:36.109Z,10.20
2022-12-26T18:15:38.925Z,10.15
2022-12-26T18:20:41.702Z,9.48
2022-12-26T18:25:50.253Z,6.45
2022-12-26T18:30:56.991Z,13.85
2022-12-26T18:36:04.313Z,5.82
2022-12-26T18:41:15.067Z,8.60
2022-12-26T18:46:19.455Z,7.00
2022-12-26T18:51:22.761Z,13.02
2022-12-26T18:56:26.946Z,12.57
2022-12-26T19:01:29.724Z,6.35
2022-12-26T19:06:35.216Z,11.30
2022-12-26T19:11:39.498Z,9.13
2022-12-26T19:16:42.302Z,13.48
2022-12-26T19:21:45.090Z,12.00
2022-12-26T19:26:49.332Z,9.98
2022-12-26T19:31:52.396Z,14.23
2022-12-26T19:36:55.203Z,5.97
2022-12-26T19:41:59.315Z,6.15
2022-12-26T19:47:11.949Z,6.05
2022-12-26T19:52:15.556Z,11.05
2022-12-26T19:57:21.873Z,9.02
2022-12-26T20:02:24.857Z,6.40
2022-12-26T20:07:27.763Z,3.20
2022-12-26T20:12:32.102Z,7.90
2022-12-26T20:17:35.001Z,8.73
2022-12-26T20:22:37.827Z,4.18
2022-12-26T20:27:42.108Z,8.50
2022-12-26T20:32:47.230Z,10.32
2022-12-26T20:37:50.096Z,9.77
2022-12-26T20:42:54.242Z,6.40
2022-12-26T20:47:57.029Z,12.00
2022-12-26T20:52:59.820Z,6.97
2022-12-26T20:58:04.331Z,9.45
2022-12-26T21:03:07.201Z,8.43
2022-12-26T21:08:10.041Z,6.65
2022-12-26T21:13:14.459Z,10.20
2022-12-26T21:18:17.312Z,8.27
2022-12-26T21:23:20.075Z,12.95
2022-12-26T21:28:24.226Z,10.25
2022-12-26T21:33:27.165Z,7.28
2022-12-26T21:38:31.488Z,16.23
2022-12-26T21:43:36.061Z,8.73
2022-12-26T21:48:39.604Z,7.18
2022-12-26T21:53:42.629Z,5.43
2022-12-26T21:59:04.135Z,2.92
2022-12-26T22:04:23.645Z,2.80
2022-12-26T22:09:26.609Z,3.97
2022-12-26T22:14:31.365Z,6.53
2022-12-26T22:19:34.134Z,7.57
2022-12-26T22:24:36.887Z,7.43
2022-12-26T22:29:41.011Z,5.82
2022-12-26T22:34:43.854Z,5.78
2022-12-26T22:39:46.674Z,7.50
2022-12-26T22:44:50.807Z,10.48
2022-12-26T22:49:53.694Z,7.78
2022-12-26T22:54:56.462Z,3.95
2022-12-26T23:00:09.709Z,9.20
2022-12-26T23:05:14.606Z,7.93
2022-12-26T23:10:21.520Z,6.30
2022-12-26T23:15:28.103Z,3.67
2022-12-26T23:20:53.790Z,7.10
2022-12-26T23:26:00.094Z,16.90
2022-12-26T23:31:04.897Z,11.98
2022-12-26T23:36:08.773Z,9.18
2022-12-26T23:41:11.625Z,12.23
2022-12-26T23:46:15.852Z,5.05
2022-12-26T23:51:18.696Z,9.13
2022-12-26T23:56:21.460Z,9.63
